Time;durP1;ratioP1;P1;durP2;ratioP2;P2;SDS_P1;SDS_P2;PMS_P1;PMS_P2;Temp;Humidity;BMP_temperature;BMP_pressure;BME280_temperature;BME280_humidity;BME280_pressure;Samples;Min_cycle;Max_cycle;Signal;HPM_P1;HPM_P2
2023/05/04 00:00:43;;;;;;;10.00;6.45;;;;;;;;;;5020377;28;20997;-81
2023/05/04 00:03:10;;;;;;;14.77;7.55;;;;;;;;;;5024393;28;20415;-81
2023/05/04 00:05:36;;;;;;;13.27;7.90;;;;;;;;;;5013806;28;20417;-81
2023/05/04 00:08:02;;;;;;;9.80;6.55;;;;;;;;;;5022549;28;20781;-81
2023/05/04 00:10:29;;;;;;;11.10;6.93;;;;;;;;;;5024261;28;20425;-81
2023/05/04 00:12:56;;;;;;;11.27;7.85;;;;;;;;;;5014509;28;20426;-81
2023/05/04 00:15:23;;;;;;;15.88;7.93;;;;;;;;;;5015318;28;20423;-81
2023/05/04 00:17:49;;;;;;;13.00;7.32;;;;;;;;;;5025582;28;20413;-81
2023/05/04 00:20:15;;;;;;;10.77;7.32;;;;;;;;;;5015891;28;20900;-82
2023/05/04 00:22:42;;;;;;;10.10;6.70;;;;;;;;;;5012726;28;20419;-81
2023/05/04 00:25:08;;;;;;;12.27;6.97;;;;;;;;;;5020743;28;20496;-81
2023/05/04 00:27:35;;;;;;;12.13;7.85;;;;;;;;;;5013193;28;20429;-81
2023/05/04 00:30:02;;;;;;;11.25;7.15;;;;;;;;;;5010119;28;20416;-81
2023/05/04 00:32:29;;;;;;;13.65;7.00;;;;;;;;;;5013046;28;20934;-81
2023/05/04 00:34:56;;;;;;;11.70;7.32;;;;;;;;;;5013519;28;20918;-81
2023/05/04 00:37:22;;;;;;;10.85;7.40;;;;;;;;;;5017363;28;20808;-81
2023/05/04 00:39:48;;;;;;;11.00;6.70;;;;;;;;;;5018714;28;20447;-81
2023/05/04 00:42:14;;;;;;;13.23;7.15;;;;;;;;;;5013691;28;20433;-81
2023/05/04 00:44:41;;;;;;;8.90;7.32;;;;;;;;;;5021715;28;20411;-82
2023/05/04 00:47:09;;;;;;;9.52;6.45;;;;;;;;;;5010123;28;20435;-81
2023/05/04 00:49:36;;;;;;;11.98;6.70;;;;;;;;;;5016475;28;20422;-81
2023/05/04 00:52:02;;;;;;;10.15;5.85;;;;;;;;;;5014664;28;20427;-82
2023/05/04 00:54:29;;;;;;;10.73;6.75;;;;;;;;;;5020734;28;20898;-81
2023/05/04 00:56:57;;;;;;;9.45;6.75;;;;;;;;;;5019331;28;20502;-81
2023/05/04 00:59:24;;;;;;;8.07;6.28;;;;;;;;;;5025581;28;20784;-81
2023/05/04 01:01:50;;;;;;;12.55;7.18;;;;;;;;;;5022628;28;20756;-81
2023/05/04 01:04:18;;;;;;;12.20;7.00;;;;;;;;;;5025885;28;20906;-81
2023/05/04 01:06:47;;;;;;;11.15;6.40;;;;;;;;;;5019401;28;20424;-81
2023/05/04 01:09:16;;;;;;;14.20;6.60;;;;;;;;;;5015689;28;20422;-81
2023/05/04 01:11:47;;;;;;;9.13;6.70;;;;;;;;;;5020751;28;20426;-81
2023/05/04 01:14:14;;;;;;;14.80;7.60;;;;;;;;;;5018319;28;20420;-81
2023/05/04 01:16:40;;;;;;;15.73;7.38;;;;;;;;;;5019486;28;20436;-81
2023/05/04 01:19:06;;;;;;;11.63;6.30;;;;;;;;;;5024782;28;20421;-81
2023/05/04 01:21:35;;;;;;;10.75;6.68;;;;;;;;;;5024817;28;20425;-81
2023/05/04 01:24:02;;;;;;;17.13;7.00;;;;;;;;;;5020077;28;20511;-81
2023/05/04 01:26:30;;;;;;;11.63;6.57;;;;;;;;;;5018320;28;20428;-82
2023/05/04 01:28:59;;;;;;;14.48;6.65;;;;;;;;;;5015841;28;20420;-81
2023/05/04 01:31:26;;;;;;;12.43;6.40;;;;;;;;;;5010168;28;20446;-81
2023/05/04 01:33:53;;;;;;;12.15;6.95;;;;;;;;;;5019384;28;20888;-81
2023/05/04 01:36:20;;;;;;;15.18;7.05;;;;;;;;;;5022291;28;20424;-81
2023/05/04 01:38:48;;;;;;;8.60;6.20;;;;;;;;;;5025337;28;20502;-81
2023/05/04 01:41:14;;;;;;;11.55;7.20;;;;;;;;;;5021983;28;20785;-81
2023/05/04 01:43:41;;;;;;;9.55;6.20;;;;;;;;;;5024688;28;20425;-81
2023/05/04 01:46:07;;;;;;;12.63;6.50;;;;;;;;;;5014045;28;20421;-80
2023/05/04 01:48:34;;;;;;;10.93;6.60;;;;;;;;;;5020557;28;20411;-82
2023/05/04 01:51:00;;;;;;;11.35;5.72;;;;;;;;;;5021196;28;20422;-81
2023/05/04 01:53:27;;;;;;;12.40;5.85;;;;;;;;;;5021308;28;20418;-81
2023/05/04 01:55:54;;;;;;;13.20;6.72;;;;;;;;;;5020776;28;20426;-81
2023/05/04 01:58:21;;;;;;;15.65;7.57;;;;;;;;;;5012395;28;20415;-81
2023/05/04 02:00:47;;;;;;;13.65;6.85;;;;;;;;;;5009137;28;20417;-81
2023/05/04 02:03:13;;;;;;;8.90;6.60;;;;;;;;;;5019653;28;20902;-81
2023/05/04 02:05:40;;;;;;;10.77;6.45;;;;;;;;;;5024437;28;20411;-81
2023/05/04 02:08:06;;;;;;;10.65;6.68;;;;;;;;;;5018917;28;20420;-81
2023/05/04 02:10:32;;;;;;;14.50;7.25;;;;;;;;;;5008636;28;20801;-81
2023/05/04 02:13:00;;;;;;;10.07;7.20;;;;;;;;;;5005275;28;20791;-81
2023/05/04 02:15:26;;;;;;;10.40;7.20;;;;;;;;;;5017802;28;20440;-81
2023/05/04 02:17:53;;;;;;;12.57;7.70;;;;;;;;;;5015938;28;20409;-80
2023/05/04 02:20:19;;;;;;;13.32;7.43;;;;;;;;;;5029085;28;20411;-82
2023/05/04 02:22:46;;;;;;;13.17;7.70;;;;;;;;;;5015606;28;20407;-81
2023/05/04 02:25:12;;;;;;;10.20;7.57;;;;;;;;;;5009292;28;20433;-81
2023/05/04 02:27:38;;;;;;;13.27;8.00;;;;;;;;;;5017268;28;20411;-81
2023/05/04 02:30:08;;;;;;;14.65;7.35;;;;;;;;;;5013435;28;20455;-81
2023/05/04 02:32:35;;;;;;;11.93;7.50;;;;;;;;;;5020444;28;20464;-81
2023/05/04 02:35:01;;;;;;;13.75;8.25;;;;;;;;;;5014145;28;20417;-81
2023/05/04 02:37:27;;;;;;;12.07;7.60;;;;;;;;;;5011724;28;20410;-81
2023/05/04 02:39:54;;;;;;;13.65;7.65;;;;;;;;;;5027329;28;20435;-81
2023/05/04 02:42:20;;;;;;;11.07;7.67;;;;;;;;;;5017234;28;20427;-81
2023/05/04 02:44:46;;;;;;;13.40;8.00;;;;;;;;;;5017423;28;20906;-81
2023/05/04 02:47:14;;;;;;;15.10;7.97;;;;;;;;;;5019771;28;20427;-81
2023/05/04 02:49:40;;;;;;;13.25;8.02;;;;;;;;;;5023087;28;20442;-82
2023/05/04 02:52:07;;;;;;;12.13;7.95;;;;;;;;;;5009907;28;20798;-81
2023/05/04 02:54:33;;;;;;;14.02;8.05;;;;;;;;;;5024103;28;20438;-81
2023/05/04 02:57:00;;;;;;;13.38;7.95;;;;;;;;;;5015294;28;20425;-81
2023/05/04 02:59:26;;;;;;;11.95;7.65;;;;;;;;;;5016768;28;20439;-81
2023/05/04 03:01:52;;;;;;;13.40;8.20;;;;;;;;;;5013805;28;20918;-81
2023/05/04 03:04:20;;;;;;;11.80;8.00;;;;;;;;;;5022584;28;20416;-81
2023/05/04 03:06:46;;;;;;;17.30;8.88;;;;;;;;;;5019594;28;20430;-81
2023/05/04 03:09:13;;;;;;;13.10;8.10;;;;;;;;;;5025877;28;20792;-81
2023/05/04 03:11:39;;;;;;;14.95;8.35;;;;;;;;;;5021140;28;20489;-81
2023/05/04 03:14:06;;;;;;;16.42;9.18;;;;;;;;;;5014693;28;20452;-81
2023/05/04 03:16:33;;;;;;;16.05;8.40;;;;;;;;;;5013232;28;21067;-81
2023/05/04 03:18:59;;;;;;;12.93;8.50;;;;;;;;;;5018139;28;20906;-81
2023/05/04 03:21:27;;;;;;;14.88;8.70;;;;;;;;;;5015342;28;20413;-81
2023/05/04 03:23:53;;;;;;;12.55;7.78;;;;;;;;;;5013964;28;20925;-81
2023/05/04 03:26:20;;;;;;;12.52;7.20;;;;;;;;;;5028646;28;20430;-81
2023/05/04 03:28:46;;;;;;;10.43;8.10;;;;;;;;;;5020211;28;20415;-81
2023/05/04 03:31:12;;;;;;;14.20;8.80;;;;;;;;;;5021941;28;20429;-81
2023/05/04 03:33:39;;;;;;;14.23;8.18;;;;;;;;;;5019044;28;20434;-81
2023/05/04 03:36:05;;;;;;;15.27;8.40;;;;;;;;;;5022363;28;20515;-81
2023/05/04 03:38:33;;;;;;;15.85;7.82;;;;;;;;;;5009105;28;20413;-81
2023/05/04 03:40:59;;;;;;;15.55;8.05;;;;;;;;;;5015949;28;20483;-81
2023/05/04 03:43:26;;;;;;;12.27;8.07;;;;;;;;;;5022055;28;20420;-81
2023/05/04 03:45:52;;;;;;;13.90;8.55;;;;;;;;;;5024181;28;20407;-81
2023/05/04 03:48:18;;;;;;;13.05;7.28;;;;;;;;;;5015545;28;20772;-81
2023/05/04 03:50:45;;;;;;;12.68;7.78;;;;;;;;;;5012784;28;20419;-81
2023/05/04 03:53:11;;;;;;;12.80;8.27;;;;;;;;;;5031012;28;20430;-81
2023/05/04 03:55:39;;;;;;;12.27;7.80;;;;;;;;;;5017592;28;20422;-81
2023/05/04 03:58:05;;;;;;;11.30;7.43;;;;;;;;;;5016009;28;20439;-81
2023/05/04 04:00:31;;;;;;;13.25;8.05;;;;;;;;;;5029450;28;20437;-81
2023/05/04 04:02:58;;;;;;;15.43;8.35;;;;;;;;;;5030774;28;20395;-81
2023/05/04 04:05:24;;;;;;;13.27;7.53;;;;;;;;;;5017396;28;20416;-81
2023/05/04 04:07:50;;;;;;;14.30;7.47;;;;;;;;;;5022843;28;20408;-81
2023/05/04 04:10:17;;;;;;;13.55;7.10;;;;;;;;;;5007800;28;20419;-82
2023/05/04 04:12:44;;;;;;;12.20;7.72;;;;;;;;;;5013117;28;20802;-82
2023/05/04 04:15:11;;;;;;;15.82;7.20;;;;;;;;;;5021016;28;20411;-81
2023/05/04 04:17:37;;;;;;;14.98;7.45;;;;;;;;;;5017748;28;20417;-81
2023/05/04 04:20:04;;;;;;;13.13;7.38;;;;;;;;;;5005708;28;20429;-81
2023/05/04 04:22:31;;;;;;;12.75;7.40;;;;;;;;;;5017130;28;20491;-81
2023/05/04 04:24:57;;;;;;;12.32;7.50;;;;;;;;;;5017076;28;20946;-81
2023/05/04 04:27:23;;;;;;;14.38;7.53;;;;;;;;;;5012870;28;20416;-81
2023/05/04 04:29:51;;;;;;;11.80;6.78;;;;;;;;;;5025538;28;20409;-81
2023/05/04 04:32:18;;;;;;;11.48;7.55;;;;;;;;;;5017476;28;21021;-81
2023/05/04 04:34:44;;;;;;;15.75;7.40;;;;;;;;;;5012458;28;20439;-81
2023/05/04 04:37:11;;;;;;;12.82;7.10;;;;;;;;;;5021608;28;20404;-81
2023/05/04 04:39:37;;;;;;;11.95;7.30;;;;;;;;;;5016603;28;20434;-81
2023/05/04 04:42:04;;;;;;;11.90;7.00;;;;;;;;;;5024045;28;20412;-81
2023/05/04 04:44:30;;;;;;;11.82;6.70;;;;;;;;;;5021321;28;20420;-81
2023/05/04 04:46:58;;;;;;;14.52;7.30;;;;;;;;;;5015552;28;20417;-82
2023/05/04 04:49:24;;;;;;;12.85;7.15;;;;;;;;;;5021069;28;20422;-81
2023/05/04 04:51:51;;;;;;;9.93;6.50;;;;;;;;;;5015556;28;20429;-81
2023/05/04 04:54:18;;;;;;;8.98;6.90;;;;;;;;;;5015560;28;20475;-82
2023/05/04 04:56:44;;;;;;;13.47;6.60;;;;;;;;;;5016068;28;20415;-81
2023/05/04 04:59:11;;;;;;;10.65;6.82;;;;;;;;;;5021454;28;20432;-81
2023/05/04 05:01:38;;;;;;;12.05;6.78;;;;;;;;;;5011120;28;20451;-81
2023/05/04 05:04:06;;;;;;;10.15;6.18;;;;;;;;;;5031948;28;20411;-81
2023/05/04 05:06:32;;;;;;;12.48;6.97;;;;;;;;;;5009425;28;20959;-82
2023/05/04 05:08:59;;;;;;;12.23;6.40;;;;;;;;;;5012112;28;20417;-83
2023/05/04 05:11:25;;;;;;;13.38;6.43;;;;;;;;;;5027383;28;20419;-82
2023/05/04 05:13:51;;;;;;;10.82;7.00;;;;;;;;;;5020620;28;20435;-82
2023/05/04 05:16:18;;;;;;;11.18;5.85;;;;;;;;;;5011072;28;20415;-81
2023/05/04 05:18:44;;;;;;;10.63;6.72;;;;;;;;;;5028140;28;20781;-81
2023/05/04 05:21:12;;;;;;;10.50;6.90;;;;;;;;;;5014459;28;21003;-81
2023/05/04 05:23:39;;;;;;;14.45;6.80;;;;;;;;;;5013368;28;20409;-81
2023/05/04 05:26:05;;;;;;;9.27;6.30;;;;;;;;;;5024317;28;20438;-81
2023/05/04 05:28:32;;;;;;;12.07;5.93;;;;;;;;;;5024865;28;20411;-81
2023/05/04 05:30:58;;;;;;;11.00;6.03;;;;;;;;;;5004673;28;20793;-81
2023/05/04 05:33:24;;;;;;;10.05;5.80;;;;;;;;;;5029048;28;20423;-81
2023/05/04 05:35:51;;;;;;;10.52;5.63;;;;;;;;;;5019646;28;20442;-81
2023/05/04 05:38:19;;;;;;;11.40;5.93;;;;;;;;;;4997003;28;20532;-81
2023/05/04 05:40:45;;;;;;;8.55;5.03;;;;;;;;;;5008262;28;20421;-81
2023/05/04 05:43:11;;;;;;;10.40;5.70;;;;;;;;;;5019614;28;20409;-81
2023/05/04 05:45:38;;;;;;;14.47;8.37;;;;;;;;;;4993442;28;20615;-81
2023/05/04 05:48:04;;;;;;;10.18;6.20;;;;;;;;;;4990141;28;20413;-80
2023/05/04 05:50:31;;;;;;;9.00;5.25;;;;;;;;;;5008208;28;20412;-81
2023/05/04 05:52:57;;;;;;;8.90;4.93;;;;;;;;;;4999073;28;20406;-80
2023/05/04 05:55:25;;;;;;;10.48;5.55;;;;;;;;;;5021987;28;20418;-81
2023/05/04 05:57:51;;;;;;;9.20;5.40;;;;;;;;;;5032209;28;20410;-81
2023/05/04 06:00:18;;;;;;;10.32;5.68;;;;;;;;;;5023785;28;20418;-82
2023/05/04 06:02:44;;;;;;;8.45;4.47;;;;;;;;;;5019237;28;20420;-81
2023/05/04 06:05:11;;;;;;;7.95;5.40;;;;;;;;;;5016154;28;20416;-81
2023/05/04 06:07:37;;;;;;;13.03;5.50;;;;;;;;;;5020609;28;20506;-82
2023/05/04 06:10:04;;;;;;;12.00;4.80;;;;;;;;;;5016375;28;20433;-83
2023/05/04 06:12:32;;;;;;;7.35;4.93;;;;;;;;;;5015086;28;20918;-81
2023/05/04 06:14:58;;;;;;;11.27;5.78;;;;;;;;;;5020027;28;20445;-81
2023/05/04 06:17:25;;;;;;;9.17;5.33;;;;;;;;;;5024506;28;20417;-82
2023/05/04 06:19:51;;;;;;;8.93;4.60;;;;;;;;;;5015403;28;20429;-81
2023/05/04 06:22:17;;;;;;;10.57;4.78;;;;;;;;;;5016043;28;20475;-81
2023/05/04 06:24:44;;;;;;;9.80;4.60;;;;;;;;;;5018629;28;20413;-80
2023/05/04 06:27:10;;;;;;;9.07;4.30;;;;;;;;;;5022014;28;20427;-80
2023/05/04 06:29:40;;;;;;;13.15;5.40;;;;;;;;;;5019319;28;20417;-80
2023/05/04 06:32:06;;;;;;;8.20;4.95;;;;;;;;;;5016439;28;20439;-80
2023/05/04 06:34:32;;;;;;;8.48;4.90;;;;;;;;;;5017808;28;20417;-81
2023/05/04 06:36:59;;;;;;;9.98;4.45;;;;;;;;;;5016482;28;20429;-81
2023/05/04 06:39:25;;;;;;;9.13;4.63;;;;;;;;;;5013707;28;20428;-80
2023/05/04 06:41:53;;;;;;;6.85;4.53;;;;;;;;;;5018696;28;20420;-80
2023/05/04 06:44:19;;;;;;;8.68;5.20;;;;;;;;;;5008196;28;20783;-80
2023/05/04 06:46:47;;;;;;;9.38;5.13;;;;;;;;;;5009661;28;20486;-80
2023/05/04 06:49:13;;;;;;;7.88;4.30;;;;;;;;;;5017800;28;20941;-79
2023/05/04 06:51:40;;;;;;;8.20;4.38;;;;;;;;;;5018886;28;20944;-81
2023/05/04 06:54:06;;;;;;;7.78;5.32;;;;;;;;;;5026042;28;20938;-81
2023/05/04 06:56:33;;;;;;;9.57;4.43;;;;;;;;;;5009587;28;20415;-80
2023/05/04 06:58:59;;;;;;;7.97;4.80;;;;;;;;;;5021656;28;20431;-80
2023/05/04 07:01:26;;;;;;;9.25;4.30;;;;;;;;;;5023745;28;20437;-80
2023/05/04 07:03:57;;;;;;;8.15;4.65;;;;;;;;;;5016377;28;20799;-80
2023/05/04 07:06:25;;;;;;;8.73;5.00;;;;;;;;;;5018486;28;20427;-80
2023/05/04 07:08:51;;;;;;;9.18;4.88;;;;;;;;;;5013876;28;20476;-80
2023/05/04 07:11:17;;;;;;;9.38;4.63;;;;;;;;;;5017123;28;20427;-80
2023/05/04 07:13:44;;;;;;;5.95;4.40;;;;;;;;;;5025443;28;20438;-80
2023/05/04 07:16:10;;;;;;;8.77;4.60;;;;;;;;;;5015693;28;20429;-80
2023/05/04 07:18:37;;;;;;;8.30;4.57;;;;;;;;;;5023910;28;20428;-81
2023/05/04 07:21:09;;;;;;;10.18;4.50;;;;;;;;;;5024104;28;20816;-80
2023/05/04 07:23:35;;;;;;;9.93;4.55;;;;;;;;;;4994706;28;20418;-80
2023/05/04 07:26:01;;;;;;;10.18;4.50;;;;;;;;;;5024070;28;20420;-81
2023/05/04 07:28:28;;;;;;;5.57;3.72;;;;;;;;;;5014410;28;20492;-80
2023/05/04 07:30:54;;;;;;;9.63;4.60;;;;;;;;;;5014199;28;20425;-80
2023/05/04 07:33:21;;;;;;;9.55;4.53;;;;;;;;;;5005403;28;20431;-80
2023/05/04 07:35:47;;;;;;;5.75;3.63;;;;;;;;;;5025657;28;20937;-80
2023/05/04 07:38:15;;;;;;;6.25;4.30;;;;;;;;;;5012855;28;20543;-80
2023/05/04 07:40:41;;;;;;;10.35;4.10;;;;;;;;;;5022987;28;20415;-80
2023/05/04 07:43:09;;;;;;;6.97;4.10;;;;;;;;;;5015918;28;20846;-80
2023/05/04 07:45:35;;;;;;;8.15;4.55;;;;;;;;;;5032828;28;20421;-80
2023/05/04 07:48:02;;;;;;;10.65;3.70;;;;;;;;;;5028271;28;20407;-81
2023/05/04 07:50:28;;;;;;;10.02;4.40;;;;;;;;;;5023501;28;20432;-81
2023/05/04 07:52:55;;;;;;;8.98;3.90;;;;;;;;;;5010399;28;20406;-80
2023/05/04 07:55:22;;;;;;;6.28;4.40;;;;;;;;;;5020097;28;20798;-80
2023/05/04 07:57:49;;;;;;;8.70;3.83;;;;;;;;;;5012559;28;20448;-80
2023/05/04 08:00:16;;;;;;;8.63;3.83;;;;;;;;;;5012861;28;20417;-81
2023/05/04 08:02:42;;;;;;;7.72;4.35;;;;;;;;;;5016838;28;20886;-81
2023/05/04 08:05:09;;;;;;;7.10;4.40;;;;;;;;;;5017391;28;20424;-81
2023/05/04 08:07:35;;;;;;;5.68;3.75;;;;;;;;;;5013671;28;20414;-80
2023/05/04 08:10:02;;;;;;;7.93;3.88;;;;;;;;;;5012866;28;20419;-80
2023/05/04 08:12:29;;;;;;;5.97;4.07;;;;;;;;;;5015149;28;20430;-81
2023/05/04 08:14:56;;;;;;;9.60;4.90;;;;;;;;;;5008599;28;20418;-80
2023/05/04 08:17:22;;;;;;;6.25;3.78;;;;;;;;;;5020279;28;20421;-81
2023/05/04 08:19:49;;;;;;;9.15;4.30;;;;;;;;;;5024181;28;20425;-81
2023/05/04 08:22:16;;;;;;;5.88;3.80;;;;;;;;;;5020624;28;20786;-81
2023/05/04 08:24:42;;;;;;;7.67;4.10;;;;;;;;;;5012009;28;20934;-80
2023/05/04 08:27:12;;;;;;;6.90;4.03;;;;;;;;;;5012424;28;20436;-81
2023/05/04 08:29:40;;;;;;;7.00;3.97;;;;;;;;;;5010429;28;20420;-80
2023/05/04 08:32:07;;;;;;;6.95;3.85;;;;;;;;;;5019357;28;20483;-80
2023/05/04 08:34:33;;;;;;;8.95;4.30;;;;;;;;;;5011102;28;20420;-80
2023/05/04 08:37:01;;;;;;;10.13;3.97;;;;;;;;;;5004957;28;20898;-80
2023/05/04 08:39:27;;;;;;;7.25;4.05;;;;;;;;;;5012664;28;20506;-80
2023/05/04 08:41:53;;;;;;;5.82;3.90;;;;;;;;;;5013461;28;20439;-80
2023/05/04 08:44:21;;;;;;;6.90;4.35;;;;;;;;;;5029959;28;20497;-80
2023/05/04 08:46:52;;;;;;;5.70;3.80;;;;;;;;;;5025043;28;20938;-80
2023/05/04 08:49:18;;;;;;;7.05;3.97;;;;;;;;;;5011960;28;20499;-81
2023/05/04 08:51:45;;;;;;;7.00;3.63;;;;;;;;;;5014843;28;20507;-81
2023/05/04 08:54:12;;;;;;;8.27;3.97;;;;;;;;;;5025682;28;20417;-80
2023/05/04 08:56:39;;;;;;;7.85;3.67;;;;;;;;;;5012398;28;20558;-80
2023/05/04 08:59:08;;;;;;;8.15;3.88;;;;;;;;;;5017595;28;20412;-81
2023/05/04 09:01:36;;;;;;;7.85;3.90;;;;;;;;;;5016873;28;20436;-81
2023/05/04 09:04:04;;;;;;;7.53;3.92;;;;;;;;;;5012115;28;20420;-80
2023/05/04 09:06:31;;;;;;;9.35;4.07;;;;;;;;;;5017928;28;20479;-80
2023/05/04 09:08:57;;;;;;;6.90;4.00;;;;;;;;;;5012461;28;20420;-81
2023/05/04 09:11:24;;;;;;;8.35;3.40;;;;;;;;;;5029803;28;20411;-80
2023/05/04 09:13:50;;;;;;;5.68;3.70;;;;;;;;;;5013197;28;20421;-81
2023/05/04 09:16:18;;;;;;;7.18;3.90;;;;;;;;;;5007882;28;20760;-80
2023/05/04 09:18:44;;;;;;;7.90;3.92;;;;;;;;;;5028093;28;20411;-81
2023/05/04 09:21:12;;;;;;;7.90;3.88;;;;;;;;;;5019745;28;20435;-80
2023/05/04 09:23:45;;;;;;;8.27;3.90;;;;;;;;;;5022991;28;20405;-80
2023/05/04 09:26:11;;;;;;;7.47;3.87;;;;;;;;;;5012057;28;20420;-80
2023/05/04 09:28:38;;;;;;;7.50;3.80;;;;;;;;;;5020415;28;20426;-80
2023/05/04 09:31:05;;;;;;;9.63;4.32;;;;;;;;;;5004374;28;20420;-81
2023/05/04 09:33:31;;;;;;;7.78;4.20;;;;;;;;;;5031331;28;20975;-80
2023/05/04 09:35:59;;;;;;;6.28;4.45;;;;;;;;;;5014681;28;20458;-80
2023/05/04 09:38:27;;;;;;;5.13;3.85;;;;;;;;;;5028362;28;20415;-80
2023/05/04 09:40:54;;;;;;;9.35;3.80;;;;;;;;;;5021212;28;20434;-80
2023/05/04 09:43:20;;;;;;;6.93;4.10;;;;;;;;;;5018571;28;20423;-80
2023/05/04 09:45:47;;;;;;;7.18;4.18;;;;;;;;;;5001932;28;20875;-81
2023/05/04 09:48:17;;;;;;;7.35;3.95;;;;;;;;;;5014743;28;20898;-81
2023/05/04 09:50:48;;;;;;;7.75;4.00;;;;;;;;;;5016986;28;20507;-81
2023/05/04 09:53:15;;;;;;;7.67;4.00;;;;;;;;;;5024398;28;20464;-81
2023/05/04 09:55:45;;;;;;;5.95;3.70;;;;;;;;;;5035248;28;20488;-80
2023/05/04 09:58:13;;;;;;;8.23;4.30;;;;;;;;;;5032213;28;20419;-80
2023/05/04 10:00:40;;;;;;;5.88;4.10;;;;;;;;;;5019436;28;20430;-80
2023/05/04 10:03:06;;;;;;;5.25;3.65;;;;;;;;;;5010183;28;20436;-80
2023/05/04 10:05:33;;;;;;;7.43;3.78;;;;;;;;;;5008926;28;20415;-80
2023/05/04 10:08:00;;;;;;;11.35;4.50;;;;;;;;;;5020902;28;20401;-80
2023/05/04 10:10:27;;;;;;;6.93;3.67;;;;;;;;;;5013856;28;20444;-80
2023/05/04 10:12:54;;;;;;;6.88;3.85;;;;;;;;;;5021358;28;20916;-80
2023/05/04 10:15:22;;;;;;;8.47;4.40;;;;;;;;;;5020347;28;20436;-81
2023/05/04 10:17:57;;;;;;;6.00;3.80;;;;;;;;;;5013212;28;20443;-80
2023/05/04 10:20:30;;;;;;;7.10;4.03;;;;;;;;;;5021164;28;20432;-80
2023/05/04 10:23:06;;;;;;;8.73;3.50;;;;;;;;;;5014278;28;20405;-82
2023/05/04 10:25:51;;;;;;;6.20;3.60;;;;;;;;;;5014446;28;20435;-80
2023/05/04 10:28:24;;;;;;;6.30;3.88;;;;;;;;;;5014489;28;20420;-80
2023/05/04 10:30:55;;;;;;;5.43;3.63;;;;;;;;;;5021017;28;20437;-81
2023/05/04 10:33:21;;;;;;;6.75;3.92;;;;;;;;;;5022772;28;20418;-81
2023/05/04 10:35:52;;;;;;;8.20;3.90;;;;;;;;;;5019350;28;20417;-80
2023/05/04 10:38:18;;;;;;;9.75;4.10;;;;;;;;;;5017347;28;20838;-80
2023/05/04 10:40:47;;;;;;;11.00;3.93;;;;;;;;;;5011822;28;20921;-80
2023/05/04 10:43:21;;;;;;;6.80;3.72;;;;;;;;;;5018525;28;20415;-81
2023/05/04 10:45:49;;;;;;;5.07;3.80;;;;;;;;;;5018786;28;20424;-80
2023/05/04 10:48:15;;;;;;;8.38;3.60;;;;;;;;;;5012172;28;20417;-80
2023/05/04 10:50:42;;;;;;;5.75;3.42;;;;;;;;;;5014363;28;20431;-80
2023/05/04 10:53:12;;;;;;;6.32;3.67;;;;;;;;;;5011714;28;20560;-80
2023/05/04 10:55:39;;;;;;;6.70;3.72;;;;;;;;;;5019393;28;20778;-81
2023/05/04 10:58:05;;;;;;;4.80;3.50;;;;;;;;;;5017024;28;20412;-80
2023/05/04 11:00:41;;;;;;;6.50;3.65;;;;;;;;;;5031935;28;20430;-81
2023/05/04 11:03:10;;;;;;;7.90;3.97;;;;;;;;;;5021953;28;20414;-81
2023/05/04 11:05:40;;;;;;;7.30;3.45;;;;;;;;;;5003772;28;20786;-81
2023/05/04 11:08:14;;;;;;;8.00;4.10;;;;;;;;;;5018414;28;20495;-80
2023/05/04 11:10:40;;;;;;;10.38;4.07;;;;;;;;;;5026003;28;20783;-81
2023/05/04 11:13:10;;;;;;;9.65;3.63;;;;;;;;;;5017946;28;20931;-81
2023/05/04 11:15:43;;;;;;;8.20;3.80;;;;;;;;;;5019492;28;20503;-81
2023/05/04 11:18:11;;;;;;;6.55;3.90;;;;;;;;;;5020172;28;20432;-81
2023/05/04 11:20:37;;;;;;;6.47;4.40;;;;;;;;;;5032808;28;20426;-81
2023/05/04 11:23:06;;;;;;;6.67;3.40;;;;;;;;;;5028274;28;20412;-81
2023/05/04 11:25:34;;;;;;;11.17;3.93;;;;;;;;;;5020473;28;20424;-81
2023/05/04 11:28:01;;;;;;;4.80;3.63;;;;;;;;;;5015935;28;20867;-81
2023/05/04 11:30:32;;;;;;;3.80;3.40;;;;;;;;;;5026247;28;20419;-81
2023/05/04 11:32:59;;;;;;;7.03;3.40;;;;;;;;;;5007764;28;20887;-81
2023/05/04 11:35:26;;;;;;;7.13;3.72;;;;;;;;;;5017573;28;20432;-81
2023/05/04 11:37:54;;;;;;;7.75;3.75;;;;;;;;;;5023933;28;20422;-81
2023/05/04 11:40:22;;;;;;;6.30;3.78;;;;;;;;;;5009713;28;20475;-81
2023/05/04 11:42:49;;;;;;;5.72;3.65;;;;;;;;;;5013081;28;20447;-81
2023/05/04 11:45:17;;;;;;;6.40;3.67;;;;;;;;;;5027564;28;20438;-81
2023/05/04 11:47:44;;;;;;;6.78;3.30;;;;;;;;;;5023827;28;20438;-81
2023/05/04 11:50:11;;;;;;;6.10;3.43;;;;;;;;;;5015607;28;20420;-81
2023/05/04 11:52:39;;;;;;;6.47;3.67;;;;;;;;;;5018480;28;20817;-81
2023/05/04 11:55:07;;;;;;;7.15;3.53;;;;;;;;;;5016235;28;20790;-82
2023/05/04 11:57:35;;;;;;;4.38;3.22;;;;;;;;;;5018175;28;20478;-81
2023/05/04 12:00:03;;;;;;;10.02;3.70;;;;;;;;;;5017641;28;20940;-81
2023/05/04 12:02:29;;;;;;;6.30;3.30;;;;;;;;;;5023738;28;20425;-81
2023/05/04 12:04:56;;;;;;;5.50;3.33;;;;;;;;;;5020289;28;20446;-81
2023/05/04 12:07:22;;;;;;;6.00;3.17;;;;;;;;;;5032043;28;20403;-80
2023/05/04 12:09:50;;;;;;;6.55;3.25;;;;;;;;;;5020983;28;20434;-83
2023/05/04 12:12:17;;;;;;;5.80;3.08;;;;;;;;;;5012584;28;20435;-80
2023/05/04 12:14:48;;;;;;;6.80;3.00;;;;;;;;;;5007538;28;20431;-81
2023/05/04 12:17:14;;;;;;;7.25;3.30;;;;;;;;;;5012645;28;20409;-81
2023/05/04 12:19:47;;;;;;;9.00;3.60;;;;;;;;;;5011727;28;20486;-82
2023/05/04 12:22:13;;;;;;;9.07;3.30;;;;;;;;;;5022150;28;20421;-82
2023/05/04 12:24:39;;;;;;;5.70;3.60;;;;;;;;;;5014382;28;20937;-81
2023/05/04 12:27:13;;;;;;;9.75;3.50;;;;;;;;;;5019649;28;20511;-81
2023/05/04 12:29:40;;;;;;;4.82;3.30;;;;;;;;;;5019130;28;20415;-81
2023/05/04 12:32:06;;;;;;;5.35;3.35;;;;;;;;;;5018792;28;20450;-81
2023/05/04 12:34:33;;;;;;;6.68;3.10;;;;;;;;;;5022633;28;20916;-81
2023/05/04 12:36:59;;;;;;;6.20;3.28;;;;;;;;;;5017836;28;20432;-81
2023/05/04 12:39:27;;;;;;;4.03;3.10;;;;;;;;;;5013445;28;20911;-82
2023/05/04 12:41:53;;;;;;;7.40;3.20;;;;;;;;;;5016723;28;20421;-81
2023/05/04 12:44:21;;;;;;;5.47;3.10;;;;;;;;;;5022320;28;20423;-82
2023/05/04 12:46:47;;;;;;;6.07;3.07;;;;;;;;;;5017533;28;20415;-81
2023/05/04 12:49:14;;;;;;;8.32;3.25;;;;;;;;;;5020197;28;20799;-81
2023/05/04 12:51:40;;;;;;;6.32;2.97;;;;;;;;;;5011032;28;20424;-81
2023/05/04 12:54:07;;;;;;;4.97;2.78;;;;;;;;;;5012877;28;20413;-81
2023/05/04 12:56:33;;;;;;;3.67;2.87;;;;;;;;;;5014475;28;20442;-82
2023/05/04 12:59:00;;;;;;;4.22;3.47;;;;;;;;;;5024883;28;20926;-81
2023/05/04 13:01:27;;;;;;;5.18;2.83;;;;;;;;;;5011237;28;20905;-81
2023/05/04 13:03:54;;;;;;;3.05;2.40;;;;;;;;;;5011609;28;20791;-81
2023/05/04 13:06:20;;;;;;;6.07;3.22;;;;;;;;;;5009735;28;20786;-82
2023/05/04 13:08:47;;;;;;;4.82;3.00;;;;;;;;;;5027326;28;20783;-81
2023/05/04 13:11:14;;;;;;;4.65;2.83;;;;;;;;;;5029463;28;20420;-81
2023/05/04 13:13:41;;;;;;;7.65;3.45;;;;;;;;;;5022063;28;20440;-81
2023/05/04 13:16:08;;;;;;;4.15;3.05;;;;;;;;;;5020147;28;20439;-81
2023/05/04 13:18:35;;;;;;;5.18;2.60;;;;;;;;;;5021804;28;20447;-81
2023/05/04 13:21:02;;;;;;;4.20;2.53;;;;;;;;;;5025043;28;20411;-81
2023/05/04 13:23:28;;;;;;;5.00;3.15;;;;;;;;;;5015064;28;20998;-83
2023/05/04 13:25:54;;;;;;;5.30;3.05;;;;;;;;;;5025771;28;20487;-81
2023/05/04 13:28:21;;;;;;;6.20;3.40;;;;;;;;;;5020238;28;20949;-81
2023/05/04 13:30:47;;;;;;;5.43;3.20;;;;;;;;;;5026611;28;20420;-81
2023/05/04 13:33:13;;;;;;;6.20;3.00;;;;;;;;;;5001583;28;20418;-83
2023/05/04 13:35:41;;;;;;;4.32;2.88;;;;;;;;;;5000919;28;20432;-81
2023/05/04 13:38:08;;;;;;;5.80;3.10;;;;;;;;;;5021346;28;20424;-81
2023/05/04 13:40:34;;;;;;;5.05;3.00;;;;;;;;;;5024364;28;20417;-81
2023/05/04 13:43:01;;;;;;;5.53;2.70;;;;;;;;;;5021764;28;20413;-81
2023/05/04 13:45:27;;;;;;;4.63;3.30;;;;;;;;;;5019144;28;20434;-81
2023/05/04 13:47:53;;;;;;;5.80;2.85;;;;;;;;;;5029462;28;20427;-81
2023/05/04 13:50:20;;;;;;;4.78;3.47;;;;;;;;;;5023789;28;20413;-82
2023/05/04 13:52:47;;;;;;;5.35;2.72;;;;;;;;;;5020561;28;20408;-81
2023/05/04 13:55:15;;;;;;;4.53;2.72;;;;;;;;;;5021829;28;20437;-81
2023/05/04 13:57:41;;;;;;;5.60;2.70;;;;;;;;;;5022045;28;20418;-81
2023/05/04 14:00:08;;;;;;;5.45;3.10;;;;;;;;;;5021689;28;20411;-81
2023/05/04 14:02:35;;;;;;;5.43;2.80;;;;;;;;;;5020095;28;20413;-82
2023/05/04 14:05:01;;;;;;;4.03;2.70;;;;;;;;;;5015130;28;20928;-82
2023/05/04 14:07:27;;;;;;;7.00;3.28;;;;;;;;;;5018810;28;20437;-81
2023/05/04 14:09:55;;;;;;;4.93;2.97;;;;;;;;;;5026230;28;20411;-82
2023/05/04 14:12:22;;;;;;;7.87;3.20;;;;;;;;;;5020151;28;20898;-81
2023/05/04 14:14:49;;;;;;;4.70;3.03;;;;;;;;;;5014474;28;20428;-81
2023/05/04 14:17:16;;;;;;;6.97;4.50;;;;;;;;;;5018695;28;20855;-81
2023/05/04 14:19:44;;;;;;;6.68;4.38;;;;;;;;;;5029010;28;20437;-81
2023/05/04 14:22:10;;;;;;;3.63;2.90;;;;;;;;;;5021700;28;20424;-81
2023/05/04 14:24:36;;;;;;;5.27;3.00;;;;;;;;;;5015620;28;20428;-81
2023/05/04 14:27:04;;;;;;;7.22;3.22;;;;;;;;;;5017864;28;20412;-80
2023/05/04 14:29:31;;;;;;;5.40;2.72;;;;;;;;;;5017266;28;20782;-81
2023/05/04 14:31:57;;;;;;;4.90;2.80;;;;;;;;;;5018549;28;20957;-82
2023/05/04 14:34:25;;;;;;;4.95;2.95;;;;;;;;;;5013463;28;20429;-81
2023/05/04 14:36:51;;;;;;;7.05;3.10;;;;;;;;;;5020159;28;20520;-80